Terminal Aerodrome Forecast
Issued by NWS

Home | Current Version | Previous Version | Graphics & Text | Print | Product List | Glossary On
Versions: 1 2 3 4 5 6 7 8 9 10 11 12 13 14 15 16 17 18 19 20 21 22 23 24 25
385
FTUS43 KABR 052117 AAB
TAFPIR
TAF AMD
KPIR 052117Z 0521/0618 32029G38KT 1 1/2SM -SN BKN015 OVC020
     FM052300 31026G38KT 3SM -SN BLSN BKN020
     FM060100 30025G35KT P6SM BKN040
     FM061100 29017G25KT P6SM SCT050=

USA.gov is the U.S. government's official web portal to all federal, state and local government web resources and services.